sensor_id;sensor_type;location;lat;lon;timestamp;P1;durP1;ratioP1;P2;durP2;ratioP2
57233;SDS011;43090;52.604;13.318;2023-08-31T00:00:50;9.93;;;2.90;;
57233;SDS011;43090;52.604;13.318;2023-08-31T00:03:19;4.28;;;2.78;;
57233;SDS011;43090;52.604;13.318;2023-08-31T00:05:49;3.92;;;2.83;;
57233;SDS011;43090;52.604;13.318;2023-08-31T00:08:18;6.57;;;3.38;;
57233;SDS011;43090;52.604;13.318;2023-08-31T00:10:44;5.68;;;3.40;;
57233;SDS011;43090;52.604;13.318;2023-08-31T00:13:11;4.47;;;3.13;;
57233;SDS011;43090;52.604;13.318;2023-08-31T00:15:39;4.53;;;3.10;;
57233;SDS011;43090;52.604;13.318;2023-08-31T00:18:07;6.47;;;3.55;;
57233;SDS011;43090;52.604;13.318;2023-08-31T00:20:34;5.32;;;2.97;;
57233;SDS011;43090;52.604;13.318;2023-08-31T00:23:01;8.80;;;3.15;;
57233;SDS011;43090;52.604;13.318;2023-08-31T00:27:55;5.40;;;2.40;;
57233;SDS011;43090;52.604;13.318;2023-08-31T00:30:26;5.28;;;3.15;;
57233;SDS011;43090;52.604;13.318;2023-08-31T00:32:56;4.75;;;3.40;;
57233;SDS011;43090;52.604;13.318;2023-08-31T00:35:26;5.85;;;3.08;;
57233;SDS011;43090;52.604;13.318;2023-08-31T00:37:53;6.13;;;3.08;;
57233;SDS011;43090;52.604;13.318;2023-08-31T00:40:25;4.50;;;2.90;;
57233;SDS011;43090;52.604;13.318;2023-08-31T00:42:51;8.93;;;3.05;;
57233;SDS011;43090;52.604;13.318;2023-08-31T00:47:45;4.17;;;3.10;;
57233;SDS011;43090;52.604;13.318;2023-08-31T00:50:16;10.98;;;3.60;;
57233;SDS011;43090;52.604;13.318;2023-08-31T00:52:43;5.00;;;3.28;;
57233;SDS011;43090;52.604;13.318;2023-08-31T00:55:10;5.47;;;3.58;;
57233;SDS011;43090;52.604;13.318;2023-08-31T01:00:04;7.93;;;4.05;;
57233;SDS011;43090;52.604;13.318;2023-08-31T01:02:36;5.25;;;3.80;;
57233;SDS011;43090;52.604;13.318;2023-08-31T01:05:37;7.60;;;4.70;;
57233;SDS011;43090;52.604;13.318;2023-08-31T01:08:19;8.35;;;4.32;;
57233;SDS011;43090;52.604;13.318;2023-08-31T01:10:58;6.95;;;4.20;;
57233;SDS011;43090;52.604;13.318;2023-08-31T01:13:34;6.82;;;5.00;;
57233;SDS011;43090;52.604;13.318;2023-08-31T01:16:05;5.40;;;4.53;;
57233;SDS011;43090;52.604;13.318;2023-08-31T01:18:34;5.75;;;4.28;;
57233;SDS011;43090;52.604;13.318;2023-08-31T01:21:12;6.88;;;4.40;;
57233;SDS011;43090;52.604;13.318;2023-08-31T01:23:55;6.80;;;4.72;;
57233;SDS011;43090;52.604;13.318;2023-08-31T01:26:24;15.23;;;5.00;;
57233;SDS011;43090;52.604;13.318;2023-08-31T01:28:51;6.95;;;5.20;;
57233;SDS011;43090;52.604;13.318;2023-08-31T01:31:19;8.73;;;4.90;;
57233;SDS011;43090;52.604;13.318;2023-08-31T01:33:46;7.15;;;3.95;;
57233;SDS011;43090;52.604;13.318;2023-08-31T01:38:55;7.68;;;4.18;;
57233;SDS011;43090;52.604;13.318;2023-08-31T01:41:27;7.90;;;4.70;;
57233;SDS011;43090;52.604;13.318;2023-08-31T01:43:56;6.22;;;3.95;;
57233;SDS011;43090;52.604;13.318;2023-08-31T01:46:24;6.00;;;4.18;;
57233;SDS011;43090;52.604;13.318;2023-08-31T01:48:51;5.55;;;3.35;;
57233;SDS011;43090;52.604;13.318;2023-08-31T01:51:18;4.35;;;3.13;;
57233;SDS011;43090;52.604;13.318;2023-08-31T01:53:45;5.28;;;3.30;;
57233;SDS011;43090;52.604;13.318;2023-08-31T01:56:11;9.35;;;3.47;;
57233;SDS011;43090;52.604;13.318;2023-08-31T01:58:40;4.93;;;2.70;;
57233;SDS011;43090;52.604;13.318;2023-08-31T02:01:06;4.88;;;2.85;;
57233;SDS011;43090;52.604;13.318;2023-08-31T02:03:33;4.03;;;2.85;;
57233;SDS011;43090;52.604;13.318;2023-08-31T02:05:59;3.22;;;2.50;;
57233;SDS011;43090;52.604;13.318;2023-08-31T02:08:26;5.50;;;2.33;;
57233;SDS011;43090;52.604;13.318;2023-08-31T02:13:20;4.22;;;2.70;;
57233;SDS011;43090;52.604;13.318;2023-08-31T02:15:50;5.85;;;2.63;;
57233;SDS011;43090;52.604;13.318;2023-08-31T02:18:17;3.35;;;2.40;;
57233;SDS011;43090;52.604;13.318;2023-08-31T02:20:44;2.90;;;2.00;;
57233;SDS011;43090;52.604;13.318;2023-08-31T02:23:10;4.10;;;2.63;;
57233;SDS011;43090;52.604;13.318;2023-08-31T02:25:38;2.33;;;1.92;;
57233;SDS011;43090;52.604;13.318;2023-08-31T02:28:05;4.50;;;2.10;;
57233;SDS011;43090;52.604;13.318;2023-08-31T02:30:31;2.53;;;1.90;;
57233;SDS011;43090;52.604;13.318;2023-08-31T02:47:02;4.53;;;2.38;;
57233;SDS011;43090;52.604;13.318;2023-08-31T02:49:29;4.35;;;2.22;;
57233;SDS011;43090;52.604;13.318;2023-08-31T02:51:55;2.42;;;1.70;;
57233;SDS011;43090;52.604;13.318;2023-08-31T02:54:22;7.72;;;2.42;;
57233;SDS011;43090;52.604;13.318;2023-08-31T02:56:48;5.03;;;1.95;;
57233;SDS011;43090;52.604;13.318;2023-08-31T02:59:15;3.75;;;2.80;;
57233;SDS011;43090;52.604;13.318;2023-08-31T03:01:43;3.58;;;2.10;;
57233;SDS011;43090;52.604;13.318;2023-08-31T03:04:15;2.97;;;1.95;;
57233;SDS011;43090;52.604;13.318;2023-08-31T03:06:41;4.60;;;2.63;;
57233;SDS011;43090;52.604;13.318;2023-08-31T03:09:08;4.20;;;2.60;;
57233;SDS011;43090;52.604;13.318;2023-08-31T03:11:36;3.67;;;2.05;;
57233;SDS011;43090;52.604;13.318;2023-08-31T03:14:02;3.17;;;2.25;;
57233;SDS011;43090;52.604;13.318;2023-08-31T03:16:29;3.63;;;2.42;;
57233;SDS011;43090;52.604;13.318;2023-08-31T03:21:22;2.45;;;1.73;;
57233;SDS011;43090;52.604;13.318;2023-08-31T03:23:48;2.92;;;1.80;;
57233;SDS011;43090;52.604;13.318;2023-08-31T03:26:15;3.15;;;2.08;;
57233;SDS011;43090;52.604;13.318;2023-08-31T03:28:41;3.72;;;2.10;;
57233;SDS011;43090;52.604;13.318;2023-08-31T03:31:08;5.32;;;2.28;;
57233;SDS011;43090;52.604;13.318;2023-08-31T03:36:04;3.92;;;2.10;;
57233;SDS011;43090;52.604;13.318;2023-08-31T03:38:33;4.38;;;1.83;;
57233;SDS011;43090;52.604;13.318;2023-08-31T03:41:05;2.88;;;1.90;;
57233;SDS011;43090;52.604;13.318;2023-08-31T03:43:32;3.15;;;1.90;;
57233;SDS011;43090;52.604;13.318;2023-08-31T03:46:00;4.20;;;2.13;;
57233;SDS011;43090;52.604;13.318;2023-08-31T03:48:27;3.75;;;2.40;;
57233;SDS011;43090;52.604;13.318;2023-08-31T03:50:53;5.65;;;1.92;;
57233;SDS011;43090;52.604;13.318;2023-08-31T03:53:21;3.55;;;2.22;;
57233;SDS011;43090;52.604;13.318;2023-08-31T03:55:48;9.63;;;2.50;;
57233;SDS011;43090;52.604;13.318;2023-08-31T03:58:14;4.75;;;2.33;;
57233;SDS011;43090;52.604;13.318;2023-08-31T04:00:41;5.18;;;2.88;;
57233;SDS011;43090;52.604;13.318;2023-08-31T04:03:08;2.97;;;2.33;;
57233;SDS011;43090;52.604;13.318;2023-08-31T04:05:35;3.60;;;2.58;;
57233;SDS011;43090;52.604;13.318;2023-08-31T04:08:02;3.53;;;2.72;;
57233;SDS011;43090;52.604;13.318;2023-08-31T04:10:29;9.25;;;3.47;;
57233;SDS011;43090;52.604;13.318;2023-08-31T04:12:58;3.78;;;2.83;;
57233;SDS011;43090;52.604;13.318;2023-08-31T04:15:25;5.72;;;3.50;;
57233;SDS011;43090;52.604;13.318;2023-08-31T04:17:52;8.20;;;3.65;;
57233;SDS011;43090;52.604;13.318;2023-08-31T04:20:18;10.20;;;3.95;;
57233;SDS011;43090;52.604;13.318;2023-08-31T04:22:45;5.45;;;3.05;;
57233;SDS011;43090;52.604;13.318;2023-08-31T04:25:12;5.70;;;3.60;;
57233;SDS011;43090;52.604;13.318;2023-08-31T04:27:38;6.07;;;3.83;;
57233;SDS011;43090;52.604;13.318;2023-08-31T04:30:06;6.63;;;4.00;;
57233;SDS011;43090;52.604;13.318;2023-08-31T04:32:34;5.90;;;3.80;;
57233;SDS011;43090;52.604;13.318;2023-08-31T04:35:02;7.63;;;4.68;;
57233;SDS011;43090;52.604;13.318;2023-08-31T04:37:32;7.45;;;4.80;;
57233;SDS011;43090;52.604;13.318;2023-08-31T04:39:59;7.28;;;5.68;;
57233;SDS011;43090;52.604;13.318;2023-08-31T04:44:52;9.80;;;5.00;;
57233;SDS011;43090;52.604;13.318;2023-08-31T04:47:19;10.98;;;5.85;;
57233;SDS011;43090;52.604;13.318;2023-08-31T04:52:12;9.05;;;5.65;;
57233;SDS011;43090;52.604;13.318;2023-08-31T04:54:39;13.65;;;6.50;;
57233;SDS011;43090;52.604;13.318;2023-08-31T04:57:05;11.18;;;6.95;;
57233;SDS011;43090;52.604;13.318;2023-08-31T04:59:33;10.40;;;7.15;;
57233;SDS011;43090;52.604;13.318;2023-08-31T05:02:00;9.77;;;6.72;;
57233;SDS011;43090;52.604;13.318;2023-08-31T05:04:26;8.32;;;6.68;;
57233;SDS011;43090;52.604;13.318;2023-08-31T05:06:54;12.40;;;7.63;;
57233;SDS011;43090;52.604;13.318;2023-08-31T05:09:21;10.50;;;7.40;;
57233;SDS011;43090;52.604;13.318;2023-08-31T05:11:49;10.57;;;7.18;;
57233;SDS011;43090;52.604;13.318;2023-08-31T05:14:15;12.02;;;7.88;;
57233;SDS011;43090;52.604;13.318;2023-08-31T05:16:42;11.20;;;6.40;;
57233;SDS011;43090;52.604;13.318;2023-08-31T05:21:35;11.80;;;7.00;;
57233;SDS011;43090;52.604;13.318;2023-08-31T05:24:02;10.23;;;6.70;;
57233;SDS011;43090;52.604;13.318;2023-08-31T05:26:29;14.20;;;7.93;;
57233;SDS011;43090;52.604;13.318;2023-08-31T05:28:56;10.10;;;6.88;;
57233;SDS011;43090;52.604;13.318;2023-08-31T05:31:23;11.27;;;6.72;;
57233;SDS011;43090;52.604;13.318;2023-08-31T05:33:49;9.48;;;6.90;;
57233;SDS011;43090;52.604;13.318;2023-08-31T05:36:16;16.55;;;7.70;;
57233;SDS011;43090;52.604;13.318;2023-08-31T05:38:43;10.40;;;7.10;;
57233;SDS011;43090;52.604;13.318;2023-08-31T05:41:09;10.20;;;6.72;;
57233;SDS011;43090;52.604;13.318;2023-08-31T05:43:37;11.50;;;6.97;;
57233;SDS011;43090;52.604;13.318;2023-08-31T05:46:07;13.93;;;7.30;;
57233;SDS011;43090;52.604;13.318;2023-08-31T05:48:35;11.90;;;7.28;;
57233;SDS011;43090;52.604;13.318;2023-08-31T05:51:02;16.40;;;7.85;;
57233;SDS011;43090;52.604;13.318;2023-08-31T05:53:32;10.57;;;7.97;;
57233;SDS011;43090;52.604;13.318;2023-08-31T05:55:59;16.98;;;8.77;;
57233;SDS011;43090;52.604;13.318;2023-08-31T05:58:31;14.02;;;7.47;;
57233;SDS011;43090;52.604;13.318;2023-08-31T06:00:59;13.95;;;7.78;;
57233;SDS011;43090;52.604;13.318;2023-08-31T06:03:26;13.05;;;7.03;;
57233;SDS011;43090;52.604;13.318;2023-08-31T06:05:54;10.10;;;6.68;;
57233;SDS011;43090;52.604;13.318;2023-08-31T06:08:21;12.25;;;7.15;;
57233;SDS011;43090;52.604;13.318;2023-08-31T06:10:47;11.55;;;6.30;;
57233;SDS011;43090;52.604;13.318;2023-08-31T06:15:41;10.05;;;6.78;;
57233;SDS011;43090;52.604;13.318;2023-08-31T06:18:07;12.18;;;7.82;;
57233;SDS011;43090;52.604;13.318;2023-08-31T06:23:04;14.38;;;8.38;;
57233;SDS011;43090;52.604;13.318;2023-08-31T06:25:30;13.05;;;8.13;;
57233;SDS011;43090;52.604;13.318;2023-08-31T06:27:58;12.38;;;7.55;;
57233;SDS011;43090;52.604;13.318;2023-08-31T06:30:24;9.40;;;6.90;;
57233;SDS011;43090;52.604;13.318;2023-08-31T06:32:51;14.27;;;7.82;;
57233;SDS011;43090;52.604;13.318;2023-08-31T06:35:17;12.73;;;6.97;;
57233;SDS011;43090;52.604;13.318;2023-08-31T06:37:45;10.90;;;7.85;;
57233;SDS011;43090;52.604;13.318;2023-08-31T06:40:12;14.40;;;8.23;;
57233;SDS011;43090;52.604;13.318;2023-08-31T06:42:38;11.65;;;7.93;;
57233;SDS011;43090;52.604;13.318;2023-08-31T06:47:33;14.88;;;7.75;;
57233;SDS011;43090;52.604;13.318;2023-08-31T06:50:00;13.82;;;8.10;;
57233;SDS011;43090;52.604;13.318;2023-08-31T06:52:27;13.98;;;7.90;;
57233;SDS011;43090;52.604;13.318;2023-08-31T06:54:57;13.95;;;7.95;;
57233;SDS011;43090;52.604;13.318;2023-08-31T06:57:24;13.18;;;7.28;;
57233;SDS011;43090;52.604;13.318;2023-08-31T06:59:53;14.00;;;7.93;;
57233;SDS011;43090;52.604;13.318;2023-08-31T07:02:20;15.70;;;8.15;;
57233;SDS011;43090;52.604;13.318;2023-08-31T07:04:48;13.55;;;7.13;;
57233;SDS011;43090;52.604;13.318;2023-08-31T07:07:16;17.08;;;8.40;;
57233;SDS011;43090;52.604;13.318;2023-08-31T07:09:43;17.48;;;8.15;;
57233;SDS011;43090;52.604;13.318;2023-08-31T07:12:10;11.32;;;6.50;;
57233;SDS011;43090;52.604;13.318;2023-08-31T07:14:36;14.10;;;6.93;;
57233;SDS011;43090;52.604;13.318;2023-08-31T07:17:04;10.05;;;6.32;;
57233;SDS011;43090;52.604;13.318;2023-08-31T07:19:30;16.00;;;6.10;;
57233;SDS011;43090;52.604;13.318;2023-08-31T07:21:58;13.10;;;6.50;;
57233;SDS011;43090;52.604;13.318;2023-08-31T07:24:25;13.55;;;5.85;;
57233;SDS011;43090;52.604;13.318;2023-08-31T07:26:52;11.48;;;5.32;;
57233;SDS011;43090;52.604;13.318;2023-08-31T07:31:45;12.43;;;4.97;;
57233;SDS011;43090;52.604;13.318;2023-08-31T07:34:12;7.00;;;4.82;;
57233;SDS011;43090;52.604;13.318;2023-08-31T07:36:39;20.88;;;5.38;;
57233;SDS011;43090;52.604;13.318;2023-08-31T07:39:06;14.73;;;4.90;;
57233;SDS011;43090;52.604;13.318;2023-08-31T07:41:33;11.65;;;4.38;;
57233;SDS011;43090;52.604;13.318;2023-08-31T07:46:30;7.63;;;3.55;;
57233;SDS011;43090;52.604;13.318;2023-08-31T07:48:57;10.95;;;3.95;;
57233;SDS011;43090;52.604;13.318;2023-08-31T07:51:28;7.53;;;3.70;;
57233;SDS011;43090;52.604;13.318;2023-08-31T07:53:55;11.73;;;3.38;;
57233;SDS011;43090;52.604;13.318;2023-08-31T07:56:22;10.38;;;3.95;;
57233;SDS011;43090;52.604;13.318;2023-08-31T07:58:49;11.18;;;3.40;;
57233;SDS011;43090;52.604;13.318;2023-08-31T08:03:44;8.38;;;4.18;;
57233;SDS011;43090;52.604;13.318;2023-08-31T08:06:10;8.40;;;3.65;;
57233;SDS011;43090;52.604;13.318;2023-08-31T08:08:37;8.30;;;3.80;;
57233;SDS011;43090;52.604;13.318;2023-08-31T08:11:04;6.68;;;3.55;;
57233;SDS011;43090;52.604;13.318;2023-08-31T08:13:31;11.38;;;3.50;;
57233;SDS011;43090;52.604;13.318;2023-08-31T08:15:58;10.40;;;3.17;;
57233;SDS011;43090;52.604;13.318;2023-08-31T08:18:24;7.00;;;2.50;;
57233;SDS011;43090;52.604;13.318;2023-08-31T08:20:51;8.43;;;3.00;;
57233;SDS011;43090;52.604;13.318;2023-08-31T08:23:20;9.75;;;2.30;;
57233;SDS011;43090;52.604;13.318;2023-08-31T08:26:02;6.28;;;2.20;;
57233;SDS011;43090;52.604;13.318;2023-08-31T08:28:36;7.53;;;2.53;;
57233;SDS011;43090;52.604;13.318;2023-08-31T08:31:02;5.63;;;2.25;;
57233;SDS011;43090;52.604;13.318;2023-08-31T08:33:30;9.88;;;2.40;;
57233;SDS011;43090;52.604;13.318;2023-08-31T08:35:57;3.70;;;2.05;;
57233;SDS011;43090;52.604;13.318;2023-08-31T08:38:25;4.35;;;1.85;;
57233;SDS011;43090;52.604;13.318;2023-08-31T08:40:51;4.50;;;2.25;;
57233;SDS011;43090;52.604;13.318;2023-08-31T08:43:21;8.43;;;1.90;;
57233;SDS011;43090;52.604;13.318;2023-08-31T08:45:53;3.47;;;1.55;;
57233;SDS011;43090;52.604;13.318;2023-08-31T08:48:20;5.75;;;1.90;;
57233;SDS011;43090;52.604;13.318;2023-08-31T08:50:47;4.80;;;2.03;;
57233;SDS011;43090;52.604;13.318;2023-08-31T08:53:14;3.83;;;1.60;;
57233;SDS011;43090;52.604;13.318;2023-08-31T08:58:08;7.13;;;1.50;;
57233;SDS011;43090;52.604;13.318;2023-08-31T09:00:34;8.43;;;1.67;;
57233;SDS011;43090;52.604;13.318;2023-08-31T09:03:05;5.68;;;1.40;;
57233;SDS011;43090;52.604;13.318;2023-08-31T09:05:32;3.95;;;1.30;;
57233;SDS011;43090;52.604;13.318;2023-08-31T09:08:06;4.57;;;1.35;;
57233;SDS011;43090;52.604;13.318;2023-08-31T09:10:42;5.85;;;1.38;;
57233;SDS011;43090;52.604;13.318;2023-08-31T09:13:11;4.10;;;1.10;;
57233;SDS011;43090;52.604;13.318;2023-08-31T09:15:39;2.80;;;1.27;;
57233;SDS011;43090;52.604;13.318;2023-08-31T09:18:22;5.60;;;1.25;;
57233;SDS011;43090;52.604;13.318;2023-08-31T09:20:50;4.63;;;1.20;;
57233;SDS011;43090;52.604;13.318;2023-08-31T09:23:18;6.35;;;1.38;;
57233;SDS011;43090;52.604;13.318;2023-08-31T09:25:54;3.90;;;1.70;;
57233;SDS011;43090;52.604;13.318;2023-08-31T09:28:22;4.15;;;1.38;;
57233;SDS011;43090;52.604;13.318;2023-08-31T09:30:52;3.92;;;1.20;;
57233;SDS011;43090;52.604;13.318;2023-08-31T09:33:28;6.00;;;1.40;;
57233;SDS011;43090;52.604;13.318;2023-08-31T09:35:59;2.30;;;1.02;;
57233;SDS011;43090;52.604;13.318;2023-08-31T09:38:27;3.88;;;1.60;;
57233;SDS011;43090;52.604;13.318;2023-08-31T09:41:12;5.95;;;1.52;;
57233;SDS011;43090;52.604;13.318;2023-08-31T09:43:38;3.17;;;1.35;;
57233;SDS011;43090;52.604;13.318;2023-08-31T09:46:07;6.22;;;1.92;;
57233;SDS011;43090;52.604;13.318;2023-08-31T09:48:36;4.97;;;1.33;;
57233;SDS011;43090;52.604;13.318;2023-08-31T09:51:09;7.53;;;1.20;;
57233;SDS011;43090;52.604;13.318;2023-08-31T09:53:39;7.13;;;1.20;;
57233;SDS011;43090;52.604;13.318;2023-08-31T09:59:11;5.30;;;1.45;;
57233;SDS011;43090;52.604;13.318;2023-08-31T10:01:39;5.78;;;1.60;;
57233;SDS011;43090;52.604;13.318;2023-08-31T10:04:07;2.38;;;1.33;;
57233;SDS011;43090;52.604;13.318;2023-08-31T10:06:35;3.65;;;1.13;;
57233;SDS011;43090;52.604;13.318;2023-08-31T10:09:05;4.20;;;1.15;;
57233;SDS011;43090;52.604;13.318;2023-08-31T10:11:32;10.50;;;1.83;;
57233;SDS011;43090;52.604;13.318;2023-08-31T10:13:59;5.65;;;1.02;;
57233;SDS011;43090;52.604;13.318;2023-08-31T10:16:26;3.22;;;0.95;;
57233;SDS011;43090;52.604;13.318;2023-08-31T10:18:55;6.97;;;1.50;;
57233;SDS011;43090;52.604;13.318;2023-08-31T10:21:22;3.33;;;1.30;;
57233;SDS011;43090;52.604;13.318;2023-08-31T10:23:49;3.63;;;1.23;;
57233;SDS011;43090;52.604;13.318;2023-08-31T10:26:24;7.25;;;1.08;;
57233;SDS011;43090;52.604;13.318;2023-08-31T10:28:51;4.63;;;1.40;;
57233;SDS011;43090;52.604;13.318;2023-08-31T10:31:19;2.55;;;1.25;;
57233;SDS011;43090;52.604;13.318;2023-08-31T10:33:56;7.32;;;1.73;;
57233;SDS011;43090;52.604;13.318;2023-08-31T10:36:34;4.50;;;1.52;;
57233;SDS011;43090;52.604;13.318;2023-08-31T10:41:44;4.10;;;1.20;;
57233;SDS011;43090;52.604;13.318;2023-08-31T10:44:21;5.38;;;1.45;;
57233;SDS011;43090;52.604;13.318;2023-08-31T10:46:48;3.97;;;1.02;;
57233;SDS011;43090;52.604;13.318;2023-08-31T10:49:16;3.35;;;0.93;;
57233;SDS011;43090;52.604;13.318;2023-08-31T10:51:49;4.13;;;1.45;;
57233;SDS011;43090;52.604;13.318;2023-08-31T11:01:52;6.05;;;1.40;;
57233;SDS011;43090;52.604;13.318;2023-08-31T11:04:21;9.20;;;1.73;;
57233;SDS011;43090;52.604;13.318;2023-08-31T11:09:47;6.80;;;1.85;;
57233;SDS011;43090;52.604;13.318;2023-08-31T11:12:14;6.75;;;1.67;;
57233;SDS011;43090;52.604;13.318;2023-08-31T11:14:40;6.72;;;1.40;;
57233;SDS011;43090;52.604;13.318;2023-08-31T11:19:35;4.93;;;1.43;;
57233;SDS011;43090;52.604;13.318;2023-08-31T11:22:03;5.18;;;1.70;;
57233;SDS011;43090;52.604;13.318;2023-08-31T11:24:30;3.65;;;1.65;;
57233;SDS011;43090;52.604;13.318;2023-08-31T11:26:58;5.88;;;1.35;;
57233;SDS011;43090;52.604;13.318;2023-08-31T11:29:25;4.53;;;1.60;;
57233;SDS011;43090;52.604;13.318;2023-08-31T11:31:52;3.47;;;1.40;;
57233;SDS011;43090;52.604;13.318;2023-08-31T11:36:46;3.47;;;1.33;;
57233;SDS011;43090;52.604;13.318;2023-08-31T11:39:13;2.70;;;1.30;;
57233;SDS011;43090;52.604;13.318;2023-08-31T11:41:40;5.85;;;1.90;;
57233;SDS011;43090;52.604;13.318;2023-08-31T11:44:09;9.63;;;1.80;;
57233;SDS011;43090;52.604;13.318;2023-08-31T11:46:37;4.10;;;1.20;;
57233;SDS011;43090;52.604;13.318;2023-08-31T11:49:05;5.60;;;2.03;;
57233;SDS011;43090;52.604;13.318;2023-08-31T11:51:33;6.80;;;1.73;;
57233;SDS011;43090;52.604;13.318;2023-08-31T11:54:01;3.47;;;1.50;;
57233;SDS011;43090;52.604;13.318;2023-08-31T11:56:38;7.65;;;1.70;;
57233;SDS011;43090;52.604;13.318;2023-08-31T11:59:15;3.63;;;1.92;;
57233;SDS011;43090;52.604;13.318;2023-08-31T12:01:49;4.85;;;1.70;;
57233;SDS011;43090;52.604;13.318;2023-08-31T12:04:20;5.30;;;1.52;;
57233;SDS011;43090;52.604;13.318;2023-08-31T12:06:52;5.43;;;1.75;;
57233;SDS011;43090;52.604;13.318;2023-08-31T12:09:22;8.85;;;2.10;;
57233;SDS011;43090;52.604;13.318;2023-08-31T12:16:47;4.18;;;1.60;;
57233;SDS011;43090;52.604;13.318;2023-08-31T12:19:14;8.02;;;2.50;;
57233;SDS011;43090;52.604;13.318;2023-08-31T12:21:45;9.40;;;2.00;;
57233;SDS011;43090;52.604;13.318;2023-08-31T12:24:13;9.07;;;2.42;;
57233;SDS011;43090;52.604;13.318;2023-08-31T12:29:24;8.27;;;2.95;;
57233;SDS011;43090;52.604;13.318;2023-08-31T12:31:53;8.27;;;2.10;;
57233;SDS011;43090;52.604;13.318;2023-08-31T12:34:19;10.02;;;1.90;;
57233;SDS011;43090;52.604;13.318;2023-08-31T12:36:46;6.63;;;2.00;;
57233;SDS011;43090;52.604;13.318;2023-08-31T12:39:12;6.35;;;1.95;;
57233;SDS011;43090;52.604;13.318;2023-08-31T12:41:39;3.55;;;2.00;;
57233;SDS011;43090;52.604;13.318;2023-08-31T12:44:07;5.65;;;2.33;;
57233;SDS011;43090;52.604;13.318;2023-08-31T12:46:33;4.60;;;1.95;;
57233;SDS011;43090;52.604;13.318;2023-08-31T12:51:30;7.18;;;2.17;;
57233;SDS011;43090;52.604;13.318;2023-08-31T12:53:57;9.32;;;2.47;;
57233;SDS011;43090;52.604;13.318;2023-08-31T12:56:24;6.80;;;2.38;;
57233;SDS011;43090;52.604;13.318;2023-08-31T12:58:52;7.32;;;3.00;;
57233;SDS011;43090;52.604;13.318;2023-08-31T13:01:20;8.70;;;1.98;;
57233;SDS011;43090;52.604;13.318;2023-08-31T13:03:50;3.88;;;2.20;;
57233;SDS011;43090;52.604;13.318;2023-08-31T13:06:19;4.50;;;2.22;;
57233;SDS011;43090;52.604;13.318;2023-08-31T13:08:50;4.30;;;2.53;;
57233;SDS011;43090;52.604;13.318;2023-08-31T13:11:18;7.20;;;2.33;;
57233;SDS011;43090;52.604;13.318;2023-08-31T13:13:50;5.43;;;2.25;;
57233;SDS011;43090;52.604;13.318;2023-08-31T13:16:21;4.35;;;2.35;;
57233;SDS011;43090;52.604;13.318;2023-08-31T13:18:52;2.60;;;1.67;;
57233;SDS011;43090;52.604;13.318;2023-08-31T13:21:21;6.38;;;2.33;;
57233;SDS011;43090;52.604;13.318;2023-08-31T13:26:27;6.90;;;1.40;;
57233;SDS011;43090;52.604;13.318;2023-08-31T13:28:54;2.08;;;1.30;;
57233;SDS011;43090;52.604;13.318;2023-08-31T13:31:20;2.95;;;1.40;;
57233;SDS011;43090;52.604;13.318;2023-08-31T13:33:47;1.75;;;1.05;;
57233;SDS011;43090;52.604;13.318;2023-08-31T13:36:13;4.80;;;1.55;;
57233;SDS011;43090;52.604;13.318;2023-08-31T13:38:40;4.00;;;1.25;;
57233;SDS011;43090;52.604;13.318;2023-08-31T13:41:06;2.83;;;1.40;;
57233;SDS011;43090;52.604;13.318;2023-08-31T13:43:34;1.88;;;1.10;;
57233;SDS011;43090;52.604;13.318;2023-08-31T13:49:02;5.35;;;1.33;;
57233;SDS011;43090;52.604;13.318;2023-08-31T13:58:20;4.32;;;1.30;;
57233;SDS011;43090;52.604;13.318;2023-08-31T14:00:54;8.73;;;2.15;;
57233;SDS011;43090;52.604;13.318;2023-08-31T14:03:35;1.98;;;1.05;;
57233;SDS011;43090;52.604;13.318;2023-08-31T14:06:03;3.13;;;1.20;;
57233;SDS011;43090;52.604;13.318;2023-08-31T14:08:34;3.80;;;1.48;;
57233;SDS011;43090;52.604;13.318;2023-08-31T14:11:00;1.92;;;1.30;;
57233;SDS011;43090;52.604;13.318;2023-08-31T14:13:28;4.82;;;1.63;;
57233;SDS011;43090;52.604;13.318;2023-08-31T14:16:07;4.10;;;1.55;;
57233;SDS011;43090;52.604;13.318;2023-08-31T14:18:34;8.48;;;1.83;;
57233;SDS011;43090;52.604;13.318;2023-08-31T14:24:42;3.30;;;1.35;;
57233;SDS011;43090;52.604;13.318;2023-08-31T14:27:13;5.50;;;1.60;;
57233;SDS011;43090;52.604;13.318;2023-08-31T14:29:40;4.15;;;1.10;;
57233;SDS011;43090;52.604;13.318;2023-08-31T14:32:06;2.80;;;1.42;;
57233;SDS011;43090;52.604;13.318;2023-08-31T14:34:33;5.53;;;1.63;;
57233;SDS011;43090;52.604;13.318;2023-08-31T14:37:00;2.72;;;1.38;;
57233;SDS011;43090;52.604;13.318;2023-08-31T14:39:28;4.45;;;1.10;;
57233;SDS011;43090;52.604;13.318;2023-08-31T14:41:57;1.50;;;0.90;;
57233;SDS011;43090;52.604;13.318;2023-08-31T14:44:24;3.20;;;1.27;;
57233;SDS011;43090;52.604;13.318;2023-08-31T14:46:52;2.92;;;1.60;;
57233;SDS011;43090;52.604;13.318;2023-08-31T14:49:21;3.60;;;1.35;;
57233;SDS011;43090;52.604;13.318;2023-08-31T14:51:48;5.57;;;1.60;;
57233;SDS011;43090;52.604;13.318;2023-08-31T14:54:15;5.10;;;1.45;;
57233;SDS011;43090;52.604;13.318;2023-08-31T14:56:41;2.65;;;1.02;;
57233;SDS011;43090;52.604;13.318;2023-08-31T14:59:08;1.98;;;1.00;;
57233;SDS011;43090;52.604;13.318;2023-08-31T15:01:34;7.47;;;1.25;;
57233;SDS011;43090;52.604;13.318;2023-08-31T15:04:01;3.40;;;1.20;;
57233;SDS011;43090;52.604;13.318;2023-08-31T15:11:22;5.38;;;1.00;;
57233;SDS011;43090;52.604;13.318;2023-08-31T15:13:48;3.53;;;1.25;;
57233;SDS011;43090;52.604;13.318;2023-08-31T15:16:15;1.45;;;1.15;;
57233;SDS011;43090;52.604;13.318;2023-08-31T15:18:42;3.78;;;0.90;;
57233;SDS011;43090;52.604;13.318;2023-08-31T15:21:08;2.00;;;1.10;;
57233;SDS011;43090;52.604;13.318;2023-08-31T15:23:35;5.82;;;1.50;;
57233;SDS011;43090;52.604;13.318;2023-08-31T15:26:02;4.10;;;1.10;;
57233;SDS011;43090;52.604;13.318;2023-08-31T15:28:31;3.75;;;1.38;;
57233;SDS011;43090;52.604;13.318;2023-08-31T15:30:58;7.22;;;0.85;;
57233;SDS011;43090;52.604;13.318;2023-08-31T15:33:24;5.22;;;1.05;;
57233;SDS011;43090;52.604;13.318;2023-08-31T15:35:51;3.78;;;0.95;;
57233;SDS011;43090;52.604;13.318;2023-08-31T15:38:20;2.03;;;1.10;;
57233;SDS011;43090;52.604;13.318;2023-08-31T15:40:46;4.88;;;1.48;;
57233;SDS011;43090;52.604;13.318;2023-08-31T15:43:16;4.45;;;1.55;;
57233;SDS011;43090;52.604;13.318;2023-08-31T15:45:44;4.45;;;1.10;;
57233;SDS011;43090;52.604;13.318;2023-08-31T15:48:13;3.63;;;1.00;;
57233;SDS011;43090;52.604;13.318;2023-08-31T15:50:40;4.75;;;1.25;;
57233;SDS011;43090;52.604;13.318;2023-08-31T15:53:09;1.13;;;0.75;;
57233;SDS011;43090;52.604;13.318;2023-08-31T15:55:36;1.25;;;0.82;;
57233;SDS011;43090;52.604;13.318;2023-08-31T15:58:07;2.85;;;0.95;;
57233;SDS011;43090;52.604;13.318;2023-08-31T16:00:33;5.05;;;1.05;;
57233;SDS011;43090;52.604;13.318;2023-08-31T16:03:00;0.60;;;0.60;;
57233;SDS011;43090;52.604;13.318;2023-08-31T16:05:34;3.03;;;1.02;;
57233;SDS011;43090;52.604;13.318;2023-08-31T16:08:02;1.48;;;0.82;;
57233;SDS011;43090;52.604;13.318;2023-08-31T16:10:30;1.67;;;0.70;;
57233;SDS011;43090;52.604;13.318;2023-08-31T16:12:57;3.33;;;0.80;;
57233;SDS011;43090;52.604;13.318;2023-08-31T16:15:25;4.72;;;0.93;;
57233;SDS011;43090;52.604;13.318;2023-08-31T16:17:53;3.38;;;1.00;;
57233;SDS011;43090;52.604;13.318;2023-08-31T16:20:21;2.20;;;1.30;;
57233;SDS011;43090;52.604;13.318;2023-08-31T16:22:48;2.10;;;0.90;;
57233;SDS011;43090;52.604;13.318;2023-08-31T16:28:51;2.03;;;1.10;;